createdAt,value
2023-01-15T00:01:22.775Z,23.87
2023-01-15T00:03:53.397Z,18.00
2023-01-15T00:06:24.921Z,19.37
2023-01-15T00:08:54.785Z,18.30
2023-01-15T00:11:25.160Z,19.90
2023-01-15T00:13:54.584Z,17.67
2023-01-15T00:16:25.979Z,13.35
2023-01-15T00:19:04.296Z,18.70
2023-01-15T00:21:33.958Z,20.00
2023-01-15T00:24:21.818Z,16.82
2023-01-15T00:27:09.142Z,17.25
2023-01-15T00:29:38.560Z,23.20
2023-01-15T00:32:10.401Z,19.98
2023-01-15T00:34:39.826Z,16.85
2023-01-15T00:37:09.354Z,13.88
2023-01-15T00:39:38.916Z,14.93
2023-01-15T00:42:08.450Z,16.97
2023-01-15T00:44:37.876Z,14.83
2023-01-15T00:47:09.426Z,15.48
2023-01-15T00:49:38.849Z,16.40
2023-01-15T00:52:11.629Z,15.10
2023-01-15T00:54:41.009Z,14.15
2023-01-15T00:57:11.597Z,14.35
2023-01-15T00:59:40.996Z,13.68
2023-01-15T01:02:10.483Z,15.98
2023-01-15T01:04:40.344Z,21.33
2023-01-15T01:07:09.849Z,15.28
2023-01-15T01:09:39.268Z,16.27
2023-01-15T01:12:08.824Z,13.78
2023-01-15T01:14:40.186Z,14.83
2023-01-15T01:17:10.044Z,18.60
2023-01-15T01:19:39.452Z,18.20
2023-01-15T01:22:09.763Z,13.72
2023-01-15T01:24:39.201Z,16.90
2023-01-15T01:27:09.513Z,16.85
2023-01-15T01:29:39.075Z,11.97
2023-01-15T01:32:08.500Z,15.13
2023-01-15T01:34:38.414Z,17.90
2023-01-15T01:37:07.823Z,14.60
2023-01-15T01:39:37.315Z,15.38
2023-01-15T01:42:16.067Z,12.30
2023-01-15T01:44:48.573Z,13.25
2023-01-15T01:47:22.557Z,16.00
2023-01-15T01:49:55.137Z,18.32
2023-01-15T01:52:30.947Z,16.70
2023-01-15T01:55:01.703Z,17.27
2023-01-15T01:57:32.840Z,15.72
2023-01-15T02:00:05.342Z,14.10
2023-01-15T02:02:37.237Z,20.17
2023-01-15T02:05:10.046Z,19.25
2023-01-15T02:07:40.513Z,19.65
2023-01-15T02:10:15.586Z,17.57
2023-01-15T02:12:48.099Z,21.57
2023-01-15T02:15:20.622Z,22.25
2023-01-15T02:18:17.395Z,22.10
2023-01-15T02:20:55.785Z,24.30
2023-01-15T02:23:30.956Z,21.75
2023-01-15T02:26:25.999Z,22.48
2023-01-15T02:28:58.252Z,20.27
2023-01-15T02:31:43.270Z,20.10
2023-01-15T02:34:34.823Z,22.65
2023-01-15T02:37:09.195Z,21.37
2023-01-15T02:39:41.801Z,27.20
2023-01-15T02:42:13.852Z,24.55
2023-01-15T02:44:48.091Z,25.27
2023-01-15T02:47:20.596Z,25.97
2023-01-15T02:49:53.060Z,27.63
2023-01-15T02:52:31.578Z,35.23
2023-01-15T02:55:06.980Z,30.80
2023-01-15T02:57:40.439Z,41.63
2023-01-15T03:00:12.959Z,52.43
2023-01-15T03:05:16.208Z,53.50
2023-01-15T03:07:58.887Z,55.13
2023-01-15T03:10:59.054Z,54.05
2023-01-15T03:13:32.800Z,40.08
2023-01-15T03:16:23.233Z,41.33
2023-01-15T03:18:57.621Z,62.20
2023-01-15T03:21:33.509Z,55.20
2023-01-15T03:25:43.524Z,43.15
2023-01-15T03:28:15.026Z,47.38
2023-01-15T03:30:50.469Z,35.43
2023-01-15T03:33:21.044Z,32.85
2023-01-15T03:35:58.686Z,65.78
2023-01-15T03:38:46.465Z,68.47
2023-01-15T03:41:23.441Z,50.85
2023-01-15T03:44:07.595Z,42.97
2023-01-15T03:47:02.827Z,69.45
2023-01-15T03:49:45.095Z,43.13
2023-01-15T03:52:19.297Z,35.55
2023-01-15T03:55:05.920Z,63.98
2023-01-15T03:57:38.881Z,39.48
2023-01-15T04:00:13.273Z,42.85
2023-01-15T04:02:47.856Z,43.52
2023-01-15T04:05:20.023Z,56.42
2023-01-15T04:07:52.153Z,45.93
2023-01-15T04:10:21.845Z,42.98
2023-01-15T04:12:52.677Z,42.60
2023-01-15T04:15:22.664Z,45.60
2023-01-15T04:17:52.135Z,88.33
2023-01-15T04:20:23.615Z,44.67
2023-01-15T04:22:53.167Z,51.17
2023-01-15T04:25:22.592Z,42.70
2023-01-15T04:27:57.570Z,104.72
2023-01-15T04:30:26.997Z,46.53
2023-01-15T04:32:56.491Z,45.90
2023-01-15T04:35:26.383Z,41.08
2023-01-15T04:37:57.961Z,52.00
2023-01-15T04:40:46.868Z,38.70
2023-01-15T04:43:34.193Z,50.63
2023-01-15T04:46:04.276Z,43.60
2023-01-15T04:48:33.752Z,133.05
2023-01-15T04:51:07.882Z,99.03
2023-01-15T04:53:37.368Z,37.08
2023-01-15T04:56:07.654Z,47.58
2023-01-15T04:58:38.359Z,38.92
2023-01-15T05:01:16.546Z,37.50
2023-01-15T05:03:46.229Z,48.85
2023-01-15T05:06:15.780Z,38.75
2023-01-15T05:08:45.735Z,37.93
2023-01-15T05:11:15.353Z,27.58
2023-01-15T05:13:44.777Z,28.33
2023-01-15T05:16:24.978Z,24.45
2023-01-15T05:18:56.122Z,24.30
2023-01-15T05:21:29.036Z,21.52
2023-01-15T05:24:00.642Z,21.48
2023-01-15T05:26:32.935Z,26.07
2023-01-15T05:29:03.582Z,26.35
2023-01-15T05:31:36.568Z,28.12
2023-01-15T05:36:35.514Z,21.85
2023-01-15T05:39:05.075Z,24.90
2023-01-15T05:41:49.866Z,20.50
2023-01-15T05:44:22.712Z,20.60
2023-01-15T05:46:55.071Z,20.48
2023-01-15T05:49:26.905Z,18.00
2023-01-15T05:51:56.789Z,21.07
2023-01-15T05:54:28.968Z,20.23
2023-01-15T05:56:58.520Z,19.63
2023-01-15T05:59:30.443Z,20.95
2023-01-15T06:02:00.286Z,18.57
2023-01-15T06:04:29.705Z,22.95
2023-01-15T06:07:00.523Z,24.50
2023-01-15T06:09:29.940Z,18.95
2023-01-15T06:11:59.395Z,23.00
2023-01-15T06:14:29.080Z,18.55
2023-01-15T06:16:58.509Z,17.37
2023-01-15T06:19:27.934Z,17.80
2023-01-15T06:21:58.207Z,15.35
2023-01-15T06:24:27.680Z,18.40
2023-01-15T06:26:57.119Z,16.85
2023-01-15T06:29:27.951Z,25.08
2023-01-15T06:31:57.395Z,18.70
2023-01-15T06:34:26.824Z,19.30
2023-01-15T06:36:56.474Z,17.50
2023-01-15T06:39:25.918Z,17.75
2023-01-15T06:42:13.281Z,19.98
2023-01-15T06:45:00.750Z,21.10
2023-01-15T06:47:31.076Z,19.70
2023-01-15T06:50:00.515Z,18.45
2023-01-15T06:52:31.373Z,15.80
2023-01-15T06:55:00.794Z,14.50
2023-01-15T06:57:30.253Z,11.28
2023-01-15T06:59:59.779Z,6.67
2023-01-15T07:02:29.214Z,11.18
2023-01-15T07:04:58.628Z,6.35
2023-01-15T07:07:30.251Z,7.97
2023-01-15T07:09:59.718Z,8.87
2023-01-15T07:12:29.197Z,8.63
2023-01-15T07:14:58.779Z,6.87
2023-01-15T07:17:28.206Z,5.77
2023-01-15T07:19:57.644Z,4.58
2023-01-15T07:22:27.085Z,5.65
2023-01-15T07:24:56.917Z,4.47
2023-01-15T07:27:26.348Z,2.47
2023-01-15T07:29:56.008Z,0.72
2023-01-15T07:32:26.195Z,1.87
2023-01-15T07:34:55.614Z,1.85
2023-01-15T07:37:26.810Z,1.07
2023-01-15T07:39:57.625Z,2.27
2023-01-15T07:42:45.660Z,1.75
2023-01-15T07:45:32.936Z,2.83
2023-01-15T07:48:20.632Z,2.70
2023-01-15T07:50:50.059Z,2.92
2023-01-15T07:53:19.471Z,1.30
2023-01-15T07:55:49.234Z,0.60
2023-01-15T07:58:18.654Z,1.00
2023-01-15T08:00:48.111Z,1.60
2023-01-15T08:03:17.944Z,1.85
2023-01-15T08:05:47.364Z,3.27
2023-01-15T08:08:18.141Z,1.05
2023-01-15T08:11:05.552Z,0.65
2023-01-15T08:13:52.607Z,1.07
2023-01-15T08:16:22.314Z,1.05
2023-01-15T08:18:51.812Z,2.85
2023-01-15T08:21:21.587Z,1.45
2023-01-15T08:23:51.202Z,1.40
2023-01-15T08:26:20.631Z,1.32
2023-01-15T08:28:50.053Z,1.55
2023-01-15T08:31:19.782Z,2.10
2023-01-15T08:33:49.256Z,1.87
2023-01-15T08:36:19.118Z,1.22
2023-01-15T08:38:50.860Z,2.47
2023-01-15T08:41:20.401Z,1.00
2023-01-15T08:43:49.826Z,1.65
2023-01-15T08:46:19.504Z,2.98
2023-01-15T08:48:49.451Z,0.95
2023-01-15T08:51:19.494Z,1.90
2023-01-15T08:53:49.196Z,1.65
2023-01-15T08:56:20.748Z,1.98
2023-01-15T08:58:50.461Z,1.63
2023-01-15T09:01:20.501Z,1.15
2023-01-15T09:03:49.965Z,1.70
2023-01-15T09:06:19.555Z,3.53
2023-01-15T09:08:49.774Z,7.72
2023-01-15T09:11:19.626Z,5.72
2023-01-15T09:13:50.687Z,6.30
2023-01-15T09:16:20.290Z,2.35
2023-01-15T09:18:49.835Z,3.60
2023-01-15T09:21:19.267Z,2.65
2023-01-15T09:23:48.823Z,3.83
2023-01-15T09:26:36.522Z,4.05
2023-01-15T09:29:09.449Z,2.10
2023-01-15T09:31:38.865Z,4.35
2023-01-15T09:34:08.361Z,3.70
2023-01-15T09:36:40.434Z,5.17
2023-01-15T09:39:09.215Z,4.62
2023-01-15T09:42:07.039Z,1.85
2023-01-15T09:45:03.588Z,2.92
2023-01-15T09:47:38.915Z,1.80
2023-01-15T09:50:26.255Z,2.85
2023-01-15T09:53:18.890Z,2.52
2023-01-15T09:55:53.539Z,4.60
2023-01-15T09:58:26.280Z,3.12
2023-01-15T10:00:55.773Z,3.47
2023-01-15T10:03:43.745Z,4.37
2023-01-15T10:06:18.942Z,3.60
2023-01-15T10:08:50.802Z,2.35
2023-01-15T10:11:23.303Z,1.80
2023-01-15T10:13:56.085Z,3.45
2023-01-15T10:16:31.493Z,3.83
2023-01-15T10:19:03.719Z,3.60
2023-01-15T10:21:54.406Z,8.10
2023-01-15T10:24:42.439Z,3.67
2023-01-15T10:27:21.755Z,4.70
2023-01-15T10:29:57.537Z,4.55
2023-01-15T10:32:39.193Z,4.60
2023-01-15T10:35:29.713Z,4.83
2023-01-15T10:38:15.371Z,6.75
2023-01-15T10:41:08.067Z,6.10
2023-01-15T10:43:49.481Z,5.72
2023-01-15T10:46:22.514Z,7.34
2023-01-15T10:48:57.835Z,3.90
2023-01-15T10:51:33.095Z,3.67
2023-01-15T10:54:18.017Z,6.25
2023-01-15T10:57:03.347Z,8.20
2023-01-15T10:59:41.414Z,4.62
2023-01-15T11:02:34.265Z,3.52
2023-01-15T11:05:05.340Z,7.40
2023-01-15T11:07:54.459Z,4.37
2023-01-15T11:10:18.106Z,2.08
2023-01-15T11:13:20.638Z,3.47
2023-01-15T11:16:01.770Z,3.58
2023-01-15T11:18:52.438Z,4.55
2023-01-15T11:21:24.681Z,5.60
2023-01-15T11:23:55.367Z,6.95
2023-01-15T11:26:33.194Z,4.47
2023-01-15T11:29:06.003Z,5.72
2023-01-15T11:31:40.006Z,5.62
2023-01-15T11:34:22.206Z,6.35
2023-01-15T11:37:04.104Z,6.65
2023-01-15T11:39:34.033Z,6.47
2023-01-15T11:42:24.288Z,7.08
2023-01-15T11:45:17.002Z,5.80
2023-01-15T11:48:14.143Z,8.20
2023-01-15T11:50:58.912Z,3.45
2023-01-15T11:53:31.256Z,5.53
2023-01-15T11:56:07.509Z,7.42
2023-01-15T11:58:48.159Z,4.93
2023-01-15T12:01:34.084Z,7.17
2023-01-15T12:04:09.701Z,6.62
2023-01-15T12:06:41.825Z,5.75
2023-01-15T12:09:22.632Z,5.42
2023-01-15T12:12:17.887Z,6.15
2023-01-15T12:14:56.267Z,8.10
2023-01-15T12:17:37.411Z,7.15
2023-01-15T12:20:24.332Z,6.37
2023-01-15T12:23:14.872Z,4.12
2023-01-15T12:26:13.015Z,7.03
2023-01-15T12:28:45.685Z,3.47
2023-01-15T12:31:18.994Z,6.20
2023-01-15T12:33:51.745Z,6.62
2023-01-15T12:36:29.888Z,9.05
2023-01-15T12:39:22.020Z,11.80
2023-01-15T12:42:12.796Z,12.60
2023-01-15T12:45:08.460Z,7.62
2023-01-15T12:47:47.161Z,6.83
2023-01-15T12:50:48.410Z,6.58
2023-01-15T12:53:32.677Z,5.08
2023-01-15T12:56:10.809Z,5.33
2023-01-15T12:58:48.922Z,4.85
2023-01-15T13:01:38.057Z,5.67
2023-01-15T13:04:13.369Z,3.83
2023-01-15T13:06:46.040Z,4.45
2023-01-15T13:09:33.778Z,5.10
2023-01-15T13:12:04.196Z,8.03
2023-01-15T13:14:34.175Z,4.37
2023-01-15T13:17:06.828Z,7.58
2023-01-15T13:19:48.105Z,4.47
2023-01-15T13:22:20.620Z,6.10
2023-01-15T13:25:12.209Z,5.30
2023-01-15T13:27:54.235Z,6.08
2023-01-15T13:30:29.282Z,3.60
2023-01-15T13:33:02.237Z,7.42
2023-01-15T13:35:34.724Z,9.33
2023-01-15T13:38:09.029Z,8.40
2023-01-15T13:40:45.735Z,5.40
2023-01-15T13:43:30.180Z,6.80
2023-01-15T13:46:00.739Z,5.33
2023-01-15T13:48:36.337Z,5.33
2023-01-15T13:51:08.503Z,5.80
2023-01-15T13:53:41.303Z,6.33
2023-01-15T13:56:15.447Z,8.75
2023-01-15T13:58:57.834Z,5.72
2023-01-15T14:01:34.000Z,4.40
2023-01-15T14:04:12.904Z,8.90
2023-01-15T14:06:45.766Z,9.15
2023-01-15T14:12:17.055Z,6.25
2023-01-15T14:15:19.631Z,6.15
2023-01-15T14:18:00.863Z,8.48
2023-01-15T14:20:36.569Z,7.28
2023-01-15T14:23:20.404Z,4.80
2023-01-15T14:26:08.293Z,7.28
2023-01-15T14:28:55.148Z,5.97
2023-01-15T14:31:43.846Z,4.98
2023-01-15T14:34:19.256Z,8.28
2023-01-15T14:36:56.396Z,8.08
2023-01-15T14:39:28.899Z,8.73
2023-01-15T14:42:19.226Z,6.97
2023-01-15T14:44:52.183Z,9.10
2023-01-15T14:47:24.881Z,9.38
2023-01-15T14:50:03.377Z,13.70
2023-01-15T14:52:34.742Z,12.84
2023-01-15T14:55:04.296Z,14.47
2023-01-15T14:57:34.967Z,10.95
2023-01-15T15:00:06.330Z,5.58
2023-01-15T15:02:41.912Z,9.45
2023-01-15T15:05:22.821Z,13.65
2023-01-15T15:07:55.732Z,6.75
2023-01-15T15:10:33.831Z,10.95
2023-01-15T15:13:23.254Z,7.53
2023-01-15T15:16:23.247Z,10.95
2023-01-15T15:18:57.578Z,7.92
2023-01-15T15:21:30.066Z,8.65
2023-01-15T15:24:08.542Z,7.12
2023-01-15T15:26:39.805Z,7.72
2023-01-15T15:29:18.014Z,8.30
2023-01-15T15:32:00.519Z,7.75
2023-01-15T15:34:33.044Z,9.33
2023-01-15T15:37:05.536Z,4.35
2023-01-15T15:40:06.659Z,6.47
2023-01-15T15:42:59.188Z,9.38
2023-01-15T15:45:49.678Z,8.70
2023-01-15T15:48:45.292Z,12.25
2023-01-15T15:51:33.477Z,11.03
2023-01-15T15:54:17.788Z,10.90
2023-01-15T15:57:08.585Z,9.95
2023-01-15T15:59:41.105Z,12.65
2023-01-15T16:02:26.512Z,16.10
2023-01-15T16:04:58.931Z,10.40
2023-01-15T16:07:37.631Z,20.12
2023-01-15T16:10:26.838Z,26.30
2023-01-15T16:13:00.070Z,10.35
2023-01-15T16:15:33.033Z,13.38
2023-01-15T16:18:03.952Z,14.98
2023-01-15T16:20:34.733Z,11.40
2023-01-15T16:23:06.480Z,12.75
2023-01-15T16:25:39.000Z,13.20
2023-01-15T16:28:10.996Z,8.93
2023-01-15T16:30:40.878Z,11.30
2023-01-15T16:33:10.419Z,8.95
2023-01-15T16:35:40.945Z,16.62
2023-01-15T16:38:15.091Z,10.72
2023-01-15T16:40:47.205Z,14.10
2023-01-15T16:43:27.690Z,16.07
2023-01-15T16:46:09.250Z,14.33
2023-01-15T16:48:41.024Z,16.37
2023-01-15T16:51:35.010Z,19.95
2023-01-15T16:54:08.801Z,15.10
2023-01-15T16:56:42.399Z,11.97
2023-01-15T16:59:17.127Z,17.42
2023-01-15T17:01:48.973Z,17.27
2023-01-15T17:04:24.704Z,13.43
2023-01-15T17:07:03.449Z,9.73
2023-01-15T17:09:36.272Z,11.53
2023-01-15T17:12:09.601Z,11.05
2023-01-15T17:14:39.028Z,14.45
2023-01-15T17:17:26.430Z,11.97
2023-01-15T17:19:57.930Z,12.13
2023-01-15T17:22:31.634Z,7.47
2023-01-15T17:27:31.496Z,15.95
2023-01-15T17:30:01.013Z,20.92
2023-01-15T17:32:40.717Z,19.27
2023-01-15T17:35:25.160Z,15.45
2023-01-15T17:37:54.884Z,14.07
2023-01-15T17:40:25.604Z,15.10
2023-01-15T17:42:56.815Z,14.98
2023-01-15T17:45:28.801Z,15.80
2023-01-15T17:47:58.331Z,25.73
2023-01-15T17:50:28.798Z,27.10
2023-01-15T17:52:58.655Z,19.30
2023-01-15T17:55:46.405Z,18.12
2023-01-15T17:58:35.556Z,14.68
2023-01-15T18:01:25.913Z,10.20
2023-01-15T18:04:14.404Z,9.38
2023-01-15T18:06:47.165Z,11.38
2023-01-15T18:11:46.971Z,19.32
2023-01-15T18:14:16.407Z,22.97
2023-01-15T18:16:46.330Z,33.85
2023-01-15T18:19:15.755Z,45.38
2023-01-15T18:21:45.648Z,36.25
2023-01-15T18:24:17.473Z,19.30
2023-01-15T18:26:46.885Z,27.00
2023-01-15T18:29:16.402Z,26.85
2023-01-15T18:31:46.447Z,18.57
2023-01-15T18:34:16.013Z,15.80
2023-01-15T18:36:45.444Z,15.13
2023-01-15T18:39:15.163Z,12.20
2023-01-15T18:41:46.213Z,13.65
2023-01-15T18:44:35.945Z,11.67
2023-01-15T18:47:12.494Z,13.32
2023-01-15T18:49:44.017Z,11.65
2023-01-15T18:52:34.320Z,10.25
2023-01-15T18:55:04.423Z,12.47
2023-01-15T18:57:34.894Z,10.43
2023-01-15T19:00:07.086Z,12.85
2023-01-15T19:02:36.655Z,11.68
2023-01-15T19:05:06.768Z,14.90
2023-01-15T19:07:36.230Z,19.32
2023-01-15T19:10:06.222Z,18.23
2023-01-15T19:12:39.545Z,14.23
2023-01-15T19:15:29.024Z,15.15
2023-01-15T19:18:16.515Z,14.38
2023-01-15T19:20:46.003Z,22.40
2023-01-15T19:23:15.963Z,20.68
2023-01-15T19:25:51.491Z,27.35
2023-01-15T19:28:22.158Z,31.60
2023-01-15T19:31:09.856Z,23.30
2023-01-15T19:33:39.393Z,23.40
2023-01-15T19:36:09.328Z,19.37
2023-01-15T19:38:40.492Z,20.72
2023-01-15T19:41:31.839Z,16.50
2023-01-15T19:44:19.640Z,21.52
2023-01-15T19:47:06.703Z,14.40
2023-01-15T19:49:56.172Z,18.07
2023-01-15T19:52:38.235Z,20.50
2023-01-15T19:55:11.993Z,20.27
2023-01-15T19:57:43.387Z,23.02
2023-01-15T20:00:16.726Z,26.03
2023-01-15T20:02:47.941Z,22.27
2023-01-15T20:05:18.394Z,32.93
2023-01-15T20:07:47.900Z,22.62
2023-01-15T20:10:23.347Z,19.67
2023-01-15T20:13:11.553Z,18.90
2023-01-15T20:15:46.193Z,23.83
2023-01-15T20:18:17.700Z,27.90
2023-01-15T20:20:47.192Z,25.17
2023-01-15T20:23:16.683Z,30.43
2023-01-15T20:25:47.781Z,27.67
2023-01-15T20:28:19.710Z,23.90
2023-01-15T20:30:49.317Z,26.90
2023-01-15T20:33:18.806Z,18.57
2023-01-15T20:35:49.320Z,17.17
2023-01-15T20:38:19.265Z,24.90
2023-01-15T20:40:49.424Z,25.82
2023-01-15T20:43:38.114Z,32.45
2023-01-15T20:46:17.088Z,37.35
2023-01-15T20:49:04.694Z,42.33
2023-01-15T20:51:34.202Z,43.68
2023-01-15T20:54:06.700Z,39.80
2023-01-15T20:56:36.159Z,34.63
2023-01-15T20:59:06.259Z,31.05
2023-01-15T21:01:35.841Z,35.48
2023-01-15T21:04:06.898Z,23.25
2023-01-15T21:07:10.249Z,20.27
2023-01-15T21:09:12.470Z,19.20
2023-01-15T21:11:42.659Z,23.77
2023-01-15T21:14:14.352Z,17.70
2023-01-15T21:16:43.850Z,18.93
2023-01-15T21:19:14.753Z,23.80
2023-01-15T21:21:44.679Z,19.77
2023-01-15T21:24:14.154Z,17.45
2023-01-15T21:26:45.838Z,19.95
2023-01-15T21:29:17.789Z,19.02
2023-01-15T21:31:48.381Z,24.70
2023-01-15T21:34:21.437Z,19.95
2023-01-15T21:36:52.868Z,27.10
2023-01-15T21:39:22.708Z,23.40
2023-01-15T21:42:10.595Z,22.20
2023-01-15T21:44:44.536Z,21.57
2023-01-15T21:47:16.483Z,24.67
2023-01-15T21:49:48.655Z,24.57
2023-01-15T21:52:19.866Z,26.12
2023-01-15T21:54:50.462Z,24.95
2023-01-15T21:57:21.890Z,18.15
2023-01-15T21:59:52.072Z,29.80
2023-01-15T22:02:23.202Z,23.27
2023-01-15T22:04:58.204Z,23.05
2023-01-15T22:07:27.725Z,17.07
2023-01-15T22:10:03.349Z,15.70
2023-01-15T22:12:34.424Z,12.70
2023-01-15T22:15:03.894Z,24.87
2023-01-15T22:17:33.309Z,22.82
2023-01-15T22:20:03.136Z,19.82
2023-01-15T22:22:34.259Z,21.25
2023-01-15T22:25:05.820Z,25.67
2023-01-15T22:27:36.980Z,18.10
2023-01-15T22:30:09.754Z,23.95
2023-01-15T22:35:10.535Z,22.48
2023-01-15T22:37:40.196Z,16.57
2023-01-15T22:40:10.527Z,18.05
2023-01-15T22:42:39.955Z,19.57
2023-01-15T22:45:09.944Z,23.98
2023-01-15T22:47:39.386Z,21.25
2023-01-15T22:50:10.797Z,21.82
2023-01-15T22:52:41.543Z,15.98
2023-01-15T22:55:12.749Z,21.27
2023-01-15T22:57:42.242Z,24.55
2023-01-15T23:00:13.182Z,25.48
2023-01-15T23:02:54.880Z,22.22
2023-01-15T23:05:25.493Z,20.82
2023-01-15T23:07:54.910Z,22.60
2023-01-15T23:10:24.495Z,23.98
2023-01-15T23:12:54.684Z,26.27
2023-01-15T23:15:25.097Z,23.62
2023-01-15T23:17:54.565Z,19.32
2023-01-15T23:20:24.306Z,21.25
2023-01-15T23:22:53.721Z,20.57
2023-01-15T23:25:23.480Z,19.23
2023-01-15T23:27:53.557Z,14.63
2023-01-15T23:30:24.494Z,17.82
2023-01-15T23:32:54.288Z,15.38
2023-01-15T23:35:23.893Z,17.48
2023-01-15T23:37:53.320Z,15.95
2023-01-15T23:40:22.827Z,20.50
2023-01-15T23:43:11.040Z,19.73
2023-01-15T23:45:58.613Z,17.70
2023-01-15T23:48:28.091Z,15.98
2023-01-15T23:50:57.521Z,14.75
2023-01-15T23:53:26.999Z,18.80
2023-01-15T23:58:29.873Z,16.02
